sensor_id;sensor_type;location;lat;lon;timestamp;pressure;altitude;pressure_sealevel;temperature;humidity
18527;BME280;9393;42.158;24.748;2022-07-10T00:01:30;99206.56;;;22.34;61.49
18527;BME280;9393;42.158;24.748;2022-07-10T00:04:33;99204.16;;;22.33;61.52
18527;BME280;9393;42.158;24.748;2022-07-10T00:07:36;99205.88;;;22.39;61.59
18527;BME280;9393;42.158;24.748;2022-07-10T00:10:41;99203.53;;;22.31;62.18
18527;BME280;9393;42.158;24.748;2022-07-10T00:13:44;99210.47;;;22.20;62.12
18527;BME280;9393;42.158;24.748;2022-07-10T00:16:48;99204.25;;;22.26;62.08
18527;BME280;9393;42.158;24.748;2022-07-10T00:19:51;99209.81;;;22.06;62.72
18527;BME280;9393;42.158;24.748;2022-07-10T00:22:55;99203.28;;;22.21;62.51
18527;BME280;9393;42.158;24.748;2022-07-10T00:26:04;99193.28;;;22.04;63.00
18527;BME280;9393;42.158;24.748;2022-07-10T00:29:07;99192.53;;;22.15;62.72
18527;BME280;9393;42.158;24.748;2022-07-10T00:32:11;99186.56;;;21.84;63.64
18527;BME280;9393;42.158;24.748;2022-07-10T00:35:15;99187.84;;;21.99;63.26
18527;BME280;9393;42.158;24.748;2022-07-10T00:38:18;99185.31;;;22.04;63.01
18527;BME280;9393;42.158;24.748;2022-07-10T00:41:23;99180.72;;;22.11;62.46
18527;BME280;9393;42.158;24.748;2022-07-10T00:44:29;99174.56;;;21.99;62.83
18527;BME280;9393;42.158;24.748;2022-07-10T00:47:32;99175.88;;;21.90;63.17
18527;BME280;9393;42.158;24.748;2022-07-10T00:50:36;99169.75;;;21.90;62.80
18527;BME280;9393;42.158;24.748;2022-07-10T00:53:40;99168.25;;;22.12;61.97
18527;BME280;9393;42.158;24.748;2022-07-10T00:56:46;99161.06;;;22.01;61.81
18527;BME280;9393;42.158;24.748;2022-07-10T00:59:50;99163.16;;;22.10;61.54
18527;BME280;9393;42.158;24.748;2022-07-10T01:02:54;99164.66;;;22.06;61.36
18527;BME280;9393;42.158;24.748;2022-07-10T01:05:58;99160.06;;;22.13;61.17
18527;BME280;9393;42.158;24.748;2022-07-10T01:09:03;99157.09;;;22.22;60.66
18527;BME280;9393;42.158;24.748;2022-07-10T01:12:10;99158.91;;;22.09;60.53
18527;BME280;9393;42.158;24.748;2022-07-10T01:15:15;99155.47;;;22.21;60.47
18527;BME280;9393;42.158;24.748;2022-07-10T01:18:18;99153.00;;;22.49;59.73
18527;BME280;9393;42.158;24.748;2022-07-10T01:21:24;99162.66;;;22.32;59.67
18527;BME280;9393;42.158;24.748;2022-07-10T01:24:28;99164.28;;;22.33;59.22
18527;BME280;9393;42.158;24.748;2022-07-10T01:27:31;99167.66;;;22.40;59.25
18527;BME280;9393;42.158;24.748;2022-07-10T01:30:40;99155.69;;;22.60;58.76
18527;BME280;9393;42.158;24.748;2022-07-10T01:33:44;99161.41;;;22.34;58.97
18527;BME280;9393;42.158;24.748;2022-07-10T01:36:49;99157.34;;;22.32;59.46
18527;BME280;9393;42.158;24.748;2022-07-10T01:39:52;99162.81;;;22.37;59.25
18527;BME280;9393;42.158;24.748;2022-07-10T01:42:55;99148.41;;;22.14;60.02
18527;BME280;9393;42.158;24.748;2022-07-10T01:46:00;99150.03;;;22.15;59.97
18527;BME280;9393;42.158;24.748;2022-07-10T01:49:03;99141.09;;;22.40;59.50
18527;BME280;9393;42.158;24.748;2022-07-10T01:52:08;99136.50;;;22.47;59.12
18527;BME280;9393;42.158;24.748;2022-07-10T01:55:12;99132.78;;;22.48;59.27
18527;BME280;9393;42.158;24.748;2022-07-10T01:58:15;99132.00;;;22.17;59.83
18527;BME280;9393;42.158;24.748;2022-07-10T02:01:18;99131.31;;;22.63;58.89
18527;BME280;9393;42.158;24.748;2022-07-10T02:04:22;99127.41;;;22.25;59.76
18527;BME280;9393;42.158;24.748;2022-07-10T02:07:44;99118.31;;;22.32;59.42
18527;BME280;9393;42.158;24.748;2022-07-10T02:10:47;99123.44;;;22.45;59.10
18527;BME280;9393;42.158;24.748;2022-07-10T02:13:51;99123.78;;;22.37;59.30
18527;BME280;9393;42.158;24.748;2022-07-10T02:16:54;99122.81;;;22.32;59.29
18527;BME280;9393;42.158;24.748;2022-07-10T02:19:58;99125.88;;;22.17;59.76
18527;BME280;9393;42.158;24.748;2022-07-10T02:23:03;99128.84;;;22.39;59.33
18527;BME280;9393;42.158;24.748;2022-07-10T02:26:08;99127.25;;;22.08;60.08
18527;BME280;9393;42.158;24.748;2022-07-10T02:29:11;99134.81;;;22.23;59.82
18527;BME280;9393;42.158;24.748;2022-07-10T02:32:15;99131.38;;;22.04;60.10
18527;BME280;9393;42.158;24.748;2022-07-10T02:35:18;99134.50;;;21.83;60.52
18527;BME280;9393;42.158;24.748;2022-07-10T02:38:23;99123.75;;;21.78;60.39
18527;BME280;9393;42.158;24.748;2022-07-10T02:41:26;99127.94;;;21.85;60.39
18527;BME280;9393;42.158;24.748;2022-07-10T02:44:30;99132.63;;;22.20;59.07
18527;BME280;9393;42.158;24.748;2022-07-10T02:47:33;99131.28;;;21.99;59.69
18527;BME280;9393;42.158;24.748;2022-07-10T02:50:36;99123.69;;;21.66;60.56
18527;BME280;9393;42.158;24.748;2022-07-10T02:53:41;99135.13;;;21.48;60.69
18527;BME280;9393;42.158;24.748;2022-07-10T02:56:45;99131.72;;;21.41;61.11
18527;BME280;9393;42.158;24.748;2022-07-10T02:59:48;99131.53;;;21.61;60.80
18527;BME280;9393;42.158;24.748;2022-07-10T03:02:51;99138.13;;;21.70;60.30
18527;BME280;9393;42.158;24.748;2022-07-10T03:05:55;99144.03;;;21.72;60.15
18527;BME280;9393;42.158;24.748;2022-07-10T03:08:59;99144.91;;;21.84;59.81
18527;BME280;9393;42.158;24.748;2022-07-10T03:12:03;99148.00;;;21.81;59.98
18527;BME280;9393;42.158;24.748;2022-07-10T03:15:08;99149.03;;;21.62;60.72
18527;BME280;9393;42.158;24.748;2022-07-10T03:18:11;99156.88;;;21.39;61.30
18527;BME280;9393;42.158;24.748;2022-07-10T03:21:15;99150.09;;;21.43;61.61
18527;BME280;9393;42.158;24.748;2022-07-10T03:24:19;99152.66;;;21.49;61.20
18527;BME280;9393;42.158;24.748;2022-07-10T03:27:23;99148.22;;;21.25;61.99
18527;BME280;9393;42.158;24.748;2022-07-10T03:30:26;99138.56;;;21.31;61.99
18527;BME280;9393;42.158;24.748;2022-07-10T03:33:30;99135.03;;;21.19;62.51
18527;BME280;9393;42.158;24.748;2022-07-10T03:36:33;99127.25;;;21.24;62.87
18527;BME280;9393;42.158;24.748;2022-07-10T03:39:38;99125.91;;;21.33;62.29
18527;BME280;9393;42.158;24.748;2022-07-10T03:42:41;99128.56;;;21.14;63.46
18527;BME280;9393;42.158;24.748;2022-07-10T03:45:44;99120.69;;;21.26;63.24
18527;BME280;9393;42.158;24.748;2022-07-10T03:48:48;99126.38;;;21.05;63.93
18527;BME280;9393;42.158;24.748;2022-07-10T03:51:51;99121.63;;;21.32;63.24
18527;BME280;9393;42.158;24.748;2022-07-10T03:54:56;99118.97;;;21.13;64.02
18527;BME280;9393;42.158;24.748;2022-07-10T03:57:59;99114.97;;;21.04;64.44
18527;BME280;9393;42.158;24.748;2022-07-10T04:01:04;99120.75;;;21.20;64.25
18527;BME280;9393;42.158;24.748;2022-07-10T04:04:07;99126.19;;;21.25;64.28
18527;BME280;9393;42.158;24.748;2022-07-10T04:07:11;99132.94;;;21.27;64.23
18527;BME280;9393;42.158;24.748;2022-07-10T04:10:17;99127.06;;;21.91;62.05
18527;BME280;9393;42.158;24.748;2022-07-10T04:13:21;99121.47;;;21.63;62.72
18527;BME280;9393;42.158;24.748;2022-07-10T04:16:24;99128.81;;;21.79;62.33
18527;BME280;9393;42.158;24.748;2022-07-10T04:19:28;99126.44;;;21.89;62.21
18527;BME280;9393;42.158;24.748;2022-07-10T04:22:31;99119.47;;;21.77;62.53
18527;BME280;9393;42.158;24.748;2022-07-10T04:25:36;99118.81;;;21.99;61.77
18527;BME280;9393;42.158;24.748;2022-07-10T04:28:39;99121.00;;;22.02;61.42
18527;BME280;9393;42.158;24.748;2022-07-10T04:31:43;99117.13;;;22.17;61.00
18527;BME280;9393;42.158;24.748;2022-07-10T04:34:46;99119.59;;;22.71;59.40
18527;BME280;9393;42.158;24.748;2022-07-10T04:37:50;99126.19;;;22.39;60.10
18527;BME280;9393;42.158;24.748;2022-07-10T04:40:54;99123.94;;;22.24;60.17
18527;BME280;9393;42.158;24.748;2022-07-10T04:43:58;99132.28;;;21.98;61.09
18527;BME280;9393;42.158;24.748;2022-07-10T04:47:02;99141.47;;;22.13;60.55
18527;BME280;9393;42.158;24.748;2022-07-10T04:50:07;99141.25;;;22.15;60.47
18527;BME280;9393;42.158;24.748;2022-07-10T04:53:10;99148.59;;;22.01;60.76
18527;BME280;9393;42.158;24.748;2022-07-10T04:56:16;99137.81;;;21.96;61.13
18527;BME280;9393;42.158;24.748;2022-07-10T04:59:20;99139.25;;;22.10;61.14
18527;BME280;9393;42.158;24.748;2022-07-10T05:02:23;99140.22;;;22.16;60.90
18527;BME280;9393;42.158;24.748;2022-07-10T05:05:27;99138.38;;;22.58;59.71
18527;BME280;9393;42.158;24.748;2022-07-10T05:08:30;99151.59;;;23.23;58.49
18527;BME280;9393;42.158;24.748;2022-07-10T05:11:35;99152.16;;;23.25;57.98
18527;BME280;9393;42.158;24.748;2022-07-10T05:14:38;99156.56;;;23.94;56.39
18527;BME280;9393;42.158;24.748;2022-07-10T05:17:41;99143.41;;;23.87;56.45
18527;BME280;9393;42.158;24.748;2022-07-10T05:20:45;99150.81;;;24.42;55.36
18527;BME280;9393;42.158;24.748;2022-07-10T05:23:51;99151.91;;;24.12;55.23
18527;BME280;9393;42.158;24.748;2022-07-10T05:26:56;99141.94;;;24.53;54.80
18527;BME280;9393;42.158;24.748;2022-07-10T05:29:59;99152.66;;;24.25;55.27
18527;BME280;9393;42.158;24.748;2022-07-10T05:33:03;99149.03;;;24.02;56.06
18527;BME280;9393;42.158;24.748;2022-07-10T05:36:08;99145.13;;;24.22;55.30
18527;BME280;9393;42.158;24.748;2022-07-10T05:39:12;99140.91;;;24.54;55.26
18527;BME280;9393;42.158;24.748;2022-07-10T05:42:17;99157.75;;;24.88;54.00
18527;BME280;9393;42.158;24.748;2022-07-10T05:45:20;99152.22;;;25.11;53.32
18527;BME280;9393;42.158;24.748;2022-07-10T05:48:23;99152.34;;;25.21;52.87
18527;BME280;9393;42.158;24.748;2022-07-10T05:51:27;99140.84;;;24.99;53.68
18527;BME280;9393;42.158;24.748;2022-07-10T05:54:34;99150.09;;;25.68;51.94
18527;BME280;9393;42.158;24.748;2022-07-10T05:57:39;99145.94;;;25.39;52.41
18527;BME280;9393;42.158;24.748;2022-07-10T06:00:43;99138.88;;;24.44;55.18
18527;BME280;9393;42.158;24.748;2022-07-10T06:03:47;99145.69;;;25.02;54.10
18527;BME280;9393;42.158;24.748;2022-07-10T06:06:51;99147.78;;;24.67;54.02
18527;BME280;9393;42.158;24.748;2022-07-10T06:09:54;99150.03;;;24.75;54.32
18527;BME280;9393;42.158;24.748;2022-07-10T06:12:59;99145.09;;;24.67;54.41
18527;BME280;9393;42.158;24.748;2022-07-10T06:16:03;99152.31;;;24.21;55.91
18527;BME280;9393;42.158;24.748;2022-07-10T06:19:07;99153.09;;;24.67;54.84
18527;BME280;9393;42.158;24.748;2022-07-10T06:22:10;99153.41;;;24.37;55.65
18527;BME280;9393;42.158;24.748;2022-07-10T06:25:31;99144.44;;;24.26;55.67
18527;BME280;9393;42.158;24.748;2022-07-10T06:28:36;99145.59;;;24.80;54.12
18527;BME280;9393;42.158;24.748;2022-07-10T06:31:41;99149.56;;;24.44;55.51
18527;BME280;9393;42.158;24.748;2022-07-10T06:34:45;99152.13;;;24.73;54.86
18527;BME280;9393;42.158;24.748;2022-07-10T06:37:49;99156.19;;;25.08;54.20
18527;BME280;9393;42.158;24.748;2022-07-10T06:40:53;99152.78;;;24.46;55.79
18527;BME280;9393;42.158;24.748;2022-07-10T06:43:58;99151.97;;;24.79;54.58
18527;BME280;9393;42.158;24.748;2022-07-10T06:47:03;99155.41;;;24.91;54.24
18527;BME280;9393;42.158;24.748;2022-07-10T06:50:24;99155.06;;;25.04;54.23
18527;BME280;9393;42.158;24.748;2022-07-10T06:53:28;99160.06;;;25.01;53.94
18527;BME280;9393;42.158;24.748;2022-07-10T06:56:32;99157.72;;;25.43;52.97
18527;BME280;9393;42.158;24.748;2022-07-10T06:59:36;99162.44;;;25.36;53.06
18527;BME280;9393;42.158;24.748;2022-07-10T07:02:40;99168.75;;;26.38;51.07
18527;BME280;9393;42.158;24.748;2022-07-10T07:05:43;99159.50;;;27.15;49.44
18527;BME280;9393;42.158;24.748;2022-07-10T07:08:47;99157.03;;;27.45;49.15
18527;BME280;9393;42.158;24.748;2022-07-10T07:11:50;99160.88;;;27.64;48.40
18527;BME280;9393;42.158;24.748;2022-07-10T07:14:55;99149.06;;;27.65;47.76
18527;BME280;9393;42.158;24.748;2022-07-10T07:17:58;99147.03;;;27.35;48.66
18527;BME280;9393;42.158;24.748;2022-07-10T07:21:13;99150.25;;;27.32;48.99
18527;BME280;9393;42.158;24.748;2022-07-10T07:24:34;99146.47;;;26.86;49.87
18527;BME280;9393;42.158;24.748;2022-07-10T07:27:38;99145.31;;;26.77;50.20
18527;BME280;9393;42.158;24.748;2022-07-10T07:30:43;99147.03;;;26.30;50.66
18527;BME280;9393;42.158;24.748;2022-07-10T07:33:46;99150.34;;;26.42;51.19
18527;BME280;9393;42.158;24.748;2022-07-10T07:36:50;99144.00;;;26.21;51.54
18527;BME280;9393;42.158;24.748;2022-07-10T07:39:53;99137.50;;;26.39;50.88
18527;BME280;9393;42.158;24.748;2022-07-10T07:42:56;99142.31;;;26.15;51.09
18527;BME280;9393;42.158;24.748;2022-07-10T07:46:01;99147.16;;;25.91;51.38
18527;BME280;9393;42.158;24.748;2022-07-10T07:49:04;99135.09;;;27.06;49.21
18527;BME280;9393;42.158;24.748;2022-07-10T07:52:08;99141.69;;;27.97;47.11
18527;BME280;9393;42.158;24.748;2022-07-10T07:55:14;99140.72;;;28.34;46.61
18527;BME280;9393;42.158;24.748;2022-07-10T07:58:18;99146.03;;;28.14;45.55
18527;BME280;9393;42.158;24.748;2022-07-10T08:01:23;99146.84;;;28.09;45.76
18527;BME280;9393;42.158;24.748;2022-07-10T08:04:26;99140.47;;;28.30;45.56
18527;BME280;9393;42.158;24.748;2022-07-10T08:07:34;99140.44;;;28.35;45.99
18527;BME280;9393;42.158;24.748;2022-07-10T08:10:38;99140.47;;;28.30;46.00
18527;BME280;9393;42.158;24.748;2022-07-10T08:13:46;99146.31;;;28.12;46.62
18527;BME280;9393;42.158;24.748;2022-07-10T08:16:50;99145.97;;;27.93;45.41
18527;BME280;9393;42.158;24.748;2022-07-10T08:19:54;99139.94;;;27.56;46.71
18527;BME280;9393;42.158;24.748;2022-07-10T08:22:58;99147.53;;;27.74;46.37
18527;BME280;9393;42.158;24.748;2022-07-10T08:26:02;99136.84;;;27.84;46.90
18527;BME280;9393;42.158;24.748;2022-07-10T08:29:05;99138.47;;;27.95;46.79
18527;BME280;9393;42.158;24.748;2022-07-10T08:32:10;99147.13;;;28.18;46.47
18527;BME280;9393;42.158;24.748;2022-07-10T08:35:13;99143.97;;;28.41;46.08
18527;BME280;9393;42.158;24.748;2022-07-10T08:38:17;99145.53;;;28.27;45.83
18527;BME280;9393;42.158;24.748;2022-07-10T08:41:22;99154.09;;;28.08;46.14
18527;BME280;9393;42.158;24.748;2022-07-10T08:44:28;99145.69;;;27.90;46.56
18527;BME280;9393;42.158;24.748;2022-07-10T08:47:34;99153.72;;;27.90;46.27
18527;BME280;9393;42.158;24.748;2022-07-10T08:50:43;99155.88;;;27.93;47.06
18527;BME280;9393;42.158;24.748;2022-07-10T08:53:47;99158.25;;;27.79;48.07
18527;BME280;9393;42.158;24.748;2022-07-10T08:56:52;99152.91;;;27.89;47.30
18527;BME280;9393;42.158;24.748;2022-07-10T08:59:57;99153.19;;;27.93;47.32
18527;BME280;9393;42.158;24.748;2022-07-10T09:03:01;99158.16;;;27.59;48.38
18527;BME280;9393;42.158;24.748;2022-07-10T09:06:05;99165.16;;;27.65;47.94
18527;BME280;9393;42.158;24.748;2022-07-10T09:09:09;99166.69;;;28.08;47.36
18527;BME280;9393;42.158;24.748;2022-07-10T09:12:12;99157.03;;;28.17;46.57
18527;BME280;9393;42.158;24.748;2022-07-10T09:15:17;99166.88;;;27.96;47.42
18527;BME280;9393;42.158;24.748;2022-07-10T09:18:23;99164.03;;;27.56;47.78
18527;BME280;9393;42.158;24.748;2022-07-10T09:21:32;99163.22;;;27.08;48.75
18527;BME280;9393;42.158;24.748;2022-07-10T09:24:37;99167.59;;;27.25;48.03
18527;BME280;9393;42.158;24.748;2022-07-10T09:27:51;99166.97;;;27.49;48.36
18527;BME280;9393;42.158;24.748;2022-07-10T09:30:56;99167.59;;;27.67;48.64
18527;BME280;9393;42.158;24.748;2022-07-10T09:34:01;99164.66;;;27.73;48.32
18527;BME280;9393;42.158;24.748;2022-07-10T09:37:23;99168.09;;;27.64;48.80
18527;BME280;9393;42.158;24.748;2022-07-10T09:40:27;99161.97;;;27.73;48.60
18527;BME280;9393;42.158;24.748;2022-07-10T09:43:43;99175.66;;;27.72;49.08
18527;BME280;9393;42.158;24.748;2022-07-10T09:46:47;99166.25;;;27.69;48.72
18527;BME280;9393;42.158;24.748;2022-07-10T09:49:52;99161.13;;;27.57;48.81
18527;BME280;9393;42.158;24.748;2022-07-10T09:52:56;99179.69;;;27.74;48.66
18527;BME280;9393;42.158;24.748;2022-07-10T09:56:00;99171.06;;;27.72;48.33
18527;BME280;9393;42.158;24.748;2022-07-10T09:59:08;99171.09;;;27.77;48.06
18527;BME280;9393;42.158;24.748;2022-07-10T10:02:12;99169.00;;;27.84;47.55
18527;BME280;9393;42.158;24.748;2022-07-10T10:05:21;99171.88;;;27.73;48.06
18527;BME280;9393;42.158;24.748;2022-07-10T10:08:32;99165.22;;;27.80;47.47
18527;BME280;9393;42.158;24.748;2022-07-10T10:11:36;99158.53;;;27.78;47.75
18527;BME280;9393;42.158;24.748;2022-07-10T10:14:40;99160.44;;;27.82;47.93
18527;BME280;9393;42.158;24.748;2022-07-10T10:17:45;99157.84;;;28.18;46.84
18527;BME280;9393;42.158;24.748;2022-07-10T10:20:51;99152.94;;;27.94;46.94
18527;BME280;9393;42.158;24.748;2022-07-10T10:23:55;99155.44;;;28.11;46.32
18527;BME280;9393;42.158;24.748;2022-07-10T10:26:58;99156.03;;;28.43;45.98
18527;BME280;9393;42.158;24.748;2022-07-10T10:30:03;99149.81;;;28.38;45.80
18527;BME280;9393;42.158;24.748;2022-07-10T10:36:47;99138.81;;;29.30;43.56
18527;BME280;9393;42.158;24.748;2022-07-10T10:39:54;99138.06;;;28.99;43.71
18527;BME280;9393;42.158;24.748;2022-07-10T10:43:15;99138.31;;;29.92;41.70
18527;BME280;9393;42.158;24.748;2022-07-10T10:46:23;99138.19;;;30.13;40.55
18527;BME280;9393;42.158;24.748;2022-07-10T10:49:48;99131.03;;;30.37;40.46
18527;BME280;9393;42.158;24.748;2022-07-10T10:53:01;99128.69;;;30.93;39.13
18527;BME280;9393;42.158;24.748;2022-07-10T10:56:23;99126.97;;;30.78;39.39
18527;BME280;9393;42.158;24.748;2022-07-10T10:59:46;99131.09;;;31.47;37.65
18527;BME280;9393;42.158;24.748;2022-07-10T11:03:13;99120.38;;;31.18;36.91
18527;BME280;9393;42.158;24.748;2022-07-10T11:06:38;99116.00;;;31.46;36.28
18527;BME280;9393;42.158;24.748;2022-07-10T11:09:43;99119.41;;;32.18;36.24
18527;BME280;9393;42.158;24.748;2022-07-10T11:12:58;99104.50;;;31.64;36.45
18527;BME280;9393;42.158;24.748;2022-07-10T11:16:12;99094.22;;;31.66;35.32
18527;BME280;9393;42.158;24.748;2022-07-10T11:19:23;99092.84;;;31.87;35.58
18527;BME280;9393;42.158;24.748;2022-07-10T11:22:57;99086.28;;;31.75;34.89
18527;BME280;9393;42.158;24.748;2022-07-10T11:26:06;99092.78;;;31.50;33.65
18527;BME280;9393;42.158;24.748;2022-07-10T11:29:10;99091.38;;;31.76;34.39
18527;BME280;9393;42.158;24.748;2022-07-10T11:32:16;99083.69;;;31.46;34.55
18527;BME280;9393;42.158;24.748;2022-07-10T11:35:19;99079.72;;;31.62;33.73
18527;BME280;9393;42.158;24.748;2022-07-10T11:38:24;99079.50;;;31.77;33.70
18527;BME280;9393;42.158;24.748;2022-07-10T11:41:29;99082.78;;;31.32;33.61
18527;BME280;9393;42.158;24.748;2022-07-10T11:44:33;99071.72;;;31.57;32.72
18527;BME280;9393;42.158;24.748;2022-07-10T11:47:38;99072.66;;;32.03;33.65
18527;BME280;9393;42.158;24.748;2022-07-10T11:50:41;99066.94;;;31.49;34.60
18527;BME280;9393;42.158;24.748;2022-07-10T11:53:57;99060.75;;;31.25;34.63
18527;BME280;9393;42.158;24.748;2022-07-10T11:57:06;99074.75;;;31.27;34.38
18527;BME280;9393;42.158;24.748;2022-07-10T12:00:21;99066.97;;;31.01;34.05
18527;BME280;9393;42.158;24.748;2022-07-10T12:03:25;99064.56;;;30.42;35.33
18527;BME280;9393;42.158;24.748;2022-07-10T12:06:32;99051.53;;;30.21;36.53
18527;BME280;9393;42.158;24.748;2022-07-10T12:09:35;99051.50;;;30.26;35.72
18527;BME280;9393;42.158;24.748;2022-07-10T12:12:42;99046.28;;;30.34;35.30
18527;BME280;9393;42.158;24.748;2022-07-10T12:15:46;99048.31;;;30.52;34.98
18527;BME280;9393;42.158;24.748;2022-07-10T12:18:50;99044.25;;;30.84;34.78
18527;BME280;9393;42.158;24.748;2022-07-10T12:21:54;99054.91;;;31.18;33.93
18527;BME280;9393;42.158;24.748;2022-07-10T12:24:58;99043.66;;;31.34;34.84
18527;BME280;9393;42.158;24.748;2022-07-10T12:28:04;99050.38;;;31.37;34.35
18527;BME280;9393;42.158;24.748;2022-07-10T12:31:07;99044.28;;;31.50;34.52
18527;BME280;9393;42.158;24.748;2022-07-10T12:34:11;99040.69;;;31.78;34.97
18527;BME280;9393;42.158;24.748;2022-07-10T12:37:15;99037.06;;;31.45;34.54
18527;BME280;9393;42.158;24.748;2022-07-10T12:40:30;99032.00;;;31.81;34.64
18527;BME280;9393;42.158;24.748;2022-07-10T12:43:36;99030.72;;;31.36;34.18
18527;BME280;9393;42.158;24.748;2022-07-10T12:46:40;99031.38;;;31.47;33.91
18527;BME280;9393;42.158;24.748;2022-07-10T12:49:51;99022.84;;;31.82;33.92
18527;BME280;9393;42.158;24.748;2022-07-10T12:53:16;99022.69;;;31.92;33.03
18527;BME280;9393;42.158;24.748;2022-07-10T12:56:27;99017.00;;;31.75;33.46
18527;BME280;9393;42.158;24.748;2022-07-10T12:59:34;99016.25;;;31.70;32.99
18527;BME280;9393;42.158;24.748;2022-07-10T13:02:38;99021.09;;;31.54;32.82
18527;BME280;9393;42.158;24.748;2022-07-10T13:05:42;99018.56;;;31.39;33.35
18527;BME280;9393;42.158;24.748;2022-07-10T13:08:45;99021.00;;;31.17;33.64
18527;BME280;9393;42.158;24.748;2022-07-10T13:11:50;99012.63;;;31.18;34.28
18527;BME280;9393;42.158;24.748;2022-07-10T13:14:55;99001.56;;;30.72;34.97
18527;BME280;9393;42.158;24.748;2022-07-10T13:17:58;98998.41;;;30.65;34.49
18527;BME280;9393;42.158;24.748;2022-07-10T13:21:02;99003.47;;;30.72;35.03
18527;BME280;9393;42.158;24.748;2022-07-10T13:24:06;99004.66;;;30.61;34.72
18527;BME280;9393;42.158;24.748;2022-07-10T13:27:09;98996.47;;;30.47;34.36
18527;BME280;9393;42.158;24.748;2022-07-10T13:30:14;98994.50;;;30.76;34.66
18527;BME280;9393;42.158;24.748;2022-07-10T13:33:18;98993.19;;;30.50;34.86
18527;BME280;9393;42.158;24.748;2022-07-10T13:36:22;98995.91;;;30.74;34.79
18527;BME280;9393;42.158;24.748;2022-07-10T13:39:26;98987.94;;;30.64;34.08
18527;BME280;9393;42.158;24.748;2022-07-10T13:42:29;98990.63;;;30.87;32.97
18527;BME280;9393;42.158;24.748;2022-07-10T13:45:36;98994.97;;;30.83;32.88
18527;BME280;9393;42.158;24.748;2022-07-10T13:48:45;98994.31;;;31.20;33.29
18527;BME280;9393;42.158;24.748;2022-07-10T13:51:51;98984.56;;;31.43;32.63
18527;BME280;9393;42.158;24.748;2022-07-10T13:54:54;98988.28;;;31.84;32.93
18527;BME280;9393;42.158;24.748;2022-07-10T13:57:58;98978.91;;;32.14;32.34
18527;BME280;9393;42.158;24.748;2022-07-10T14:01:03;98977.84;;;32.29;31.87
18527;BME280;9393;42.158;24.748;2022-07-10T14:04:07;98974.91;;;32.12;32.60
18527;BME280;9393;42.158;24.748;2022-07-10T14:07:10;98974.34;;;31.40;32.70
18527;BME280;9393;42.158;24.748;2022-07-10T14:10:14;98984.78;;;30.80;34.67
18527;BME280;9393;42.158;24.748;2022-07-10T14:13:17;98987.78;;;30.21;34.90
18527;BME280;9393;42.158;24.748;2022-07-10T14:16:22;98982.25;;;30.41;35.12
18527;BME280;9393;42.158;24.748;2022-07-10T14:19:26;98990.13;;;30.28;34.96
18527;BME280;9393;42.158;24.748;2022-07-10T14:22:31;98985.13;;;29.87;35.79
18527;BME280;9393;42.158;24.748;2022-07-10T14:25:34;98985.00;;;30.02;35.87
18527;BME280;9393;42.158;24.748;2022-07-10T14:28:38;98990.22;;;29.89;36.06
18527;BME280;9393;42.158;24.748;2022-07-10T14:31:43;98986.66;;;29.93;36.44
18527;BME280;9393;42.158;24.748;2022-07-10T14:34:49;98991.59;;;29.76;37.00
18527;BME280;9393;42.158;24.748;2022-07-10T14:37:53;98983.75;;;29.51;37.51
18527;BME280;9393;42.158;24.748;2022-07-10T14:40:56;98984.50;;;29.51;36.52
18527;BME280;9393;42.158;24.748;2022-07-10T14:44:00;98987.00;;;29.43;37.17
18527;BME280;9393;42.158;24.748;2022-07-10T14:47:05;98992.72;;;29.21;37.77
18527;BME280;9393;42.158;24.748;2022-07-10T14:50:09;98988.75;;;29.03;38.11
18527;BME280;9393;42.158;24.748;2022-07-10T14:53:12;98991.19;;;29.05;37.75
18527;BME280;9393;42.158;24.748;2022-07-10T14:56:15;98996.09;;;28.88;38.52
18527;BME280;9393;42.158;24.748;2022-07-10T14:59:19;99008.19;;;28.55;39.75
18527;BME280;9393;42.158;24.748;2022-07-10T15:02:23;99011.72;;;28.05;43.51
18527;BME280;9393;42.158;24.748;2022-07-10T15:05:27;99022.56;;;27.43;48.40
18527;BME280;9393;42.158;24.748;2022-07-10T15:08:30;99026.16;;;27.01;49.47
18527;BME280;9393;42.158;24.748;2022-07-10T15:11:34;99047.41;;;26.81;52.84
18527;BME280;9393;42.158;24.748;2022-07-10T15:14:38;99039.19;;;26.88;53.54
18527;BME280;9393;42.158;24.748;2022-07-10T15:17:43;99030.75;;;26.69;56.15
18527;BME280;9393;42.158;24.748;2022-07-10T15:20:47;99016.69;;;26.84;53.23
18527;BME280;9393;42.158;24.748;2022-07-10T15:23:51;99023.31;;;26.76;55.85
18527;BME280;9393;42.158;24.748;2022-07-10T15:26:54;99016.97;;;26.45;58.63
18527;BME280;9393;42.158;24.748;2022-07-10T15:29:57;99014.94;;;26.62;55.92
18527;BME280;9393;42.158;24.748;2022-07-10T15:33:02;99005.78;;;26.17;59.13
18527;BME280;9393;42.158;24.748;2022-07-10T15:36:06;99012.31;;;26.31;58.09
18527;BME280;9393;42.158;24.748;2022-07-10T15:39:09;99023.41;;;26.49;57.41
18527;BME280;9393;42.158;24.748;2022-07-10T15:42:13;99020.34;;;26.04;57.31
18527;BME280;9393;42.158;24.748;2022-07-10T15:45:16;99022.50;;;26.34;57.45
18527;BME280;9393;42.158;24.748;2022-07-10T15:48:21;99016.78;;;26.20;58.23
18527;BME280;9393;42.158;24.748;2022-07-10T15:51:25;99019.84;;;26.39;57.56
18527;BME280;9393;42.158;24.748;2022-07-10T15:54:28;99012.41;;;26.14;58.34
18527;BME280;9393;42.158;24.748;2022-07-10T15:57:31;99011.56;;;26.08;57.28
18527;BME280;9393;42.158;24.748;2022-07-10T16:00:35;99024.03;;;26.25;57.31
18527;BME280;9393;42.158;24.748;2022-07-10T16:03:39;99026.84;;;26.13;57.65
18527;BME280;9393;42.158;24.748;2022-07-10T16:06:46;99027.28;;;26.32;56.17
18527;BME280;9393;42.158;24.748;2022-07-10T16:09:50;99022.81;;;26.42;54.02
18527;BME280;9393;42.158;24.748;2022-07-10T16:12:53;99025.38;;;26.27;54.82
18527;BME280;9393;42.158;24.748;2022-07-10T16:15:57;99026.56;;;26.41;54.93
18527;BME280;9393;42.158;24.748;2022-07-10T16:19:02;99025.78;;;26.41;53.34
18527;BME280;9393;42.158;24.748;2022-07-10T16:22:06;99028.75;;;26.44;54.08
18527;BME280;9393;42.158;24.748;2022-07-10T16:25:09;99030.09;;;26.52;55.01